PWSweather.com
Personal Weather Stations
Station Observations
WAIROAHB
Wairoa, Northern Hawkes Bay -NZ 4108

WairoaNorthern Hawkes Bay -NZ 4108

Lat: -39.04516934, Lon: 177.4263989

Elevation: 156

Station Type: WS3083

http://wairoa.net/weather/index.htm

High Low Average
Temperature 73.2°F22.9°C 64.2°F17.9°C 68.4°F20.2°C
Dew Point 71.0°F21.7°C 63.2°F17.3°C 66.3°F19.1°C
Winds 17.4 mph 28.0 kmh Calm Calm 2.0 mph NE3.2 kmh NE
Wind Gusts 27.3 mph43.9 kmh -- 6.0 mph9.7 kmh
Humidity 99% 83% 93%
Pressure 29.89 in1012.2 mb 29.57 in1001.4 mb -
Precipitation 0.34 in8.6 mm - -
Hour Temp Dew Point Humidity Winds Wind Gusts Pressure Precip Precip Rate Daily Precip Total
12:00 AM 68.4°F20.2°C 65.0°F18.3°C 89% Calm Calm -- 29.88 in1011.9 mb 0.00 in0.0 mm 0.00 in0.0 mm 0.00 in0.0 mm
12:10 AM 68.4°F20.2°C 65.0°F18.3°C 89% Calm Calm -- 29.89 in1012.2 mb 0.00 in0.0 mm 0.00 in0.0 mm 0.00 in0.0 mm
12:20 AM 68.5°F20.3°C 64.9°F18.3°C 88% Calm Calm -- 29.88 in1011.9 mb 0.00 in0.0 mm 0.00 in0.0 mm 0.00 in0.0 mm
12:30 AM 68.5°F20.3°C 64.9°F18.3°C 88% Calm Calm -- 29.88 in1011.9 mb 0.01 in0.3 mm 0.06 in1.5 mm 0.01 in0.3 mm
12:40 AM 68.2°F20.1°C 65.2°F18.4°C 90% Calm Calm -- 29.88 in1011.9 mb 0.01 in0.3 mm 0.00 in0.0 mm 0.01 in0.3 mm
12:50 AM 67.8°F19.9°C 65.4°F18.6°C 92% Calm Calm -- 29.87 in1011.5 mb 0.01 in0.3 mm 0.00 in0.0 mm 0.01 in0.3 mm
01:00 AM 67.8°F19.9°C 65.8°F18.8°C 93% Calm Calm -- 29.87 in1011.5 mb 0.01 in0.3 mm 0.00 in0.0 mm 0.01 in0.3 mm
01:10 AM 67.8°F19.9°C 66.1°F18.9°C 94% Calm Calm -- 29.87 in1011.5 mb 0.01 in0.3 mm 0.00 in0.0 mm 0.01 in0.3 mm
01:20 AM 67.8°F19.9°C 66.1°F18.9°C 94% Calm Calm -- 29.87 in1011.5 mb 0.01 in0.3 mm 0.00 in0.0 mm 0.01 in0.3 mm
01:30 AM 67.5°F19.7°C 65.4°F18.6°C 93% Calm Calm -- 29.87 in1011.5 mb 0.00 in0.0 mm 0.00 in0.0 mm 0.01 in0.3 mm
01:40 AM 67.1°F19.5°C 65.3°F18.5°C 94% Calm Calm -- 29.86 in1011.2 mb 0.00 in0.0 mm 0.00 in0.0 mm 0.01 in0.3 mm
01:50 AM 67.1°F19.5°C 65.3°F18.5°C 94% Calm Calm -- 29.87 in1011.5 mb 0.00 in0.0 mm 0.00 in0.0 mm 0.01 in0.3 mm
02:00 AM 67.3°F19.6°C 65.2°F18.4°C 93% Calm Calm 3.1 mph5.0 kmh 29.86 in1011.2 mb 0.00 in0.0 mm 0.00 in0.0 mm 0.01 in0.3 mm
02:10 AM 67.1°F19.5°C 65.0°F18.3°C 93% Calm Calm -- 29.86 in1011.2 mb 0.00 in0.0 mm 0.00 in0.0 mm 0.01 in0.3 mm
02:20 AM 66.6°F19.2°C 64.5°F18.1°C 93% Calm Calm -- 29.86 in1011.2 mb 0.00 in0.0 mm 0.00 in0.0 mm 0.01 in0.3 mm
02:30 AM 66.0°F18.9°C 64.6°F18.1°C 95% Calm Calm -- 29.86 in1011.2 mb 0.00 in0.0 mm 0.00 in0.0 mm 0.01 in0.3 mm
02:40 AM 65.3°F18.5°C 63.9°F17.7°C 95% Calm Calm -- 29.85 in1010.8 mb 0.00 in0.0 mm 0.00 in0.0 mm 0.01 in0.3 mm
02:50 AM 65.1°F18.4°C 64.0°F17.8°C 96% Calm Calm -- 29.86 in1011.2 mb 0.00 in0.0 mm 0.00 in0.0 mm 0.01 in0.3 mm
03:00 AM 64.8°F18.2°C 63.9°F17.7°C 97% Calm Calm -- 29.85 in1010.8 mb 0.00 in0.0 mm 0.00 in0.0 mm 0.01 in0.3 mm
03:10 AM 64.2°F17.9°C 63.4°F17.4°C 97% Calm Calm -- 29.85 in1010.8 mb 0.00 in0.0 mm 0.00 in0.0 mm 0.01 in0.3 mm
03:20 AM 64.2°F17.9°C 63.4°F17.4°C 97% Calm Calm -- 29.85 in1010.8 mb 0.00 in0.0 mm 0.00 in0.0 mm 0.01 in0.3 mm
03:30 AM 64.2°F17.9°C 63.4°F17.4°C 97% Calm Calm -- 29.84 in1010.5 mb 0.00 in0.0 mm 0.00 in0.0 mm 0.01 in0.3 mm
03:40 AM 64.4°F18.0°C 64.1°F17.8°C 99% Calm Calm -- 29.84 in1010.5 mb 0.00 in0.0 mm 0.00 in0.0 mm 0.01 in0.3 mm
03:50 AM 64.4°F18.0°C 64.1°F17.8°C 99% Calm Calm -- 29.85 in1010.8 mb 0.00 in0.0 mm 0.00 in0.0 mm 0.01 in0.3 mm
04:00 AM 64.6°F18.1°C 64.3°F17.9°C 99% Calm Calm -- 29.84 in1010.5 mb 0.00 in0.0 mm 0.00 in0.0 mm 0.01 in0.3 mm
04:10 AM 64.9°F18.3°C 64.7°F18.2°C 99% Calm Calm -- 29.85 in1010.8 mb 0.00 in0.0 mm 0.00 in0.0 mm 0.01 in0.3 mm
04:20 AM 65.1°F18.4°C 64.9°F18.3°C 99% Calm Calm -- 29.85 in1010.8 mb 0.00 in0.0 mm 0.00 in0.0 mm 0.01 in0.3 mm
04:30 AM 64.9°F18.3°C 64.7°F18.2°C 99% Calm Calm -- 29.85 in1010.8 mb 0.00 in0.0 mm 0.00 in0.0 mm 0.01 in0.3 mm
04:40 AM 64.6°F18.1°C 64.3°F17.9°C 99% Calm Calm -- 29.85 in1010.8 mb 0.00 in0.0 mm 0.00 in0.0 mm 0.01 in0.3 mm
04:50 AM 64.4°F18.0°C 64.1°F17.8°C 99% Calm Calm -- 29.85 in1010.8 mb 0.00 in0.0 mm 0.00 in0.0 mm 0.01 in0.3 mm
05:00 AM 64.2°F17.9°C 63.4°F17.4°C 97% Calm Calm -- 29.84 in1010.5 mb 0.00 in0.0 mm 0.00 in0.0 mm 0.01 in0.3 mm
05:10 AM 64.4°F18.0°C 64.1°F17.8°C 99% Calm Calm -- 29.84 in1010.5 mb 0.00 in0.0 mm 0.00 in0.0 mm 0.01 in0.3 mm
05:20 AM 64.4°F18.0°C 64.1°F17.8°C 99% Calm Calm -- 29.84 in1010.5 mb 0.00 in0.0 mm 0.00 in0.0 mm 0.01 in0.3 mm
05:30 AM 64.9°F18.3°C 64.7°F18.2°C 99% Calm Calm -- 29.86 in1011.2 mb 0.00 in0.0 mm 0.00 in0.0 mm 0.01 in0.3 mm
05:40 AM 65.7°F18.7°C 65.4°F18.6°C 99% Calm Calm -- 29.85 in1010.8 mb 0.00 in0.0 mm 0.00 in0.0 mm 0.01 in0.3 mm
05:50 AM 66.2°F19.0°C 65.9°F18.8°C 99% Calm Calm -- 29.85 in1010.8 mb 0.00 in0.0 mm 0.00 in0.0 mm 0.01 in0.3 mm
06:00 AM 66.4°F19.1°C 65.8°F18.8°C 98% Calm Calm -- 29.85 in1010.8 mb 0.00 in0.0 mm 0.00 in0.0 mm 0.01 in0.3 mm
06:10 AM 67.1°F19.5°C 66.0°F18.9°C 96% Calm Calm 3.1 mph5.0 kmh 29.86 in1011.2 mb 0.00 in0.0 mm 0.00 in0.0 mm 0.01 in0.3 mm
06:20 AM 67.6°F19.8°C 66.2°F19.0°C 95% 0.7 mph N1.1 kmh N 3.1 mph5.0 kmh 29.85 in1010.8 mb 0.00 in0.0 mm 0.00 in0.0 mm 0.01 in0.3 mm
06:30 AM 68.0°F20.0°C 65.9°F18.8°C 93% 1.6 mph N2.6 kmh N 3.8 mph6.1 kmh 29.86 in1011.2 mb 0.00 in0.0 mm 0.00 in0.0 mm 0.01 in0.3 mm
06:40 AM 68.2°F20.1°C 66.1°F18.9°C 93% 0.7 mph N1.1 kmh N 4.5 mph7.2 kmh 29.86 in1011.2 mb 0.00 in0.0 mm 0.00 in0.0 mm 0.01 in0.3 mm
06:50 AM 68.2°F20.1°C 66.1°F18.9°C 93% Calm Calm 3.1 mph5.0 kmh 29.86 in1011.2 mb 0.00 in0.0 mm 0.00 in0.0 mm 0.01 in0.3 mm
07:00 AM 68.4°F20.2°C 66.3°F19.1°C 93% Calm Calm 1.6 mph2.6 kmh 29.86 in1011.2 mb 0.00 in0.0 mm 0.00 in0.0 mm 0.01 in0.3 mm
11:00 AM 71.1°F21.7°C 69.0°F20.6°C 93% 1.6 mph NE2.6 kmh NE 8.3 mph13.4 kmh 29.83 in1010.2 mb 0.01 in0.3 mm 0.00 in0.0 mm 0.14 in3.6 mm
11:10 AM 70.9°F21.6°C 69.1°F20.6°C 94% 0.7 mph NE1.1 kmh NE 6.0 mph9.7 kmh 29.83 in1010.2 mb 0.01 in0.3 mm 0.00 in0.0 mm 0.14 in3.6 mm
11:20 AM 71.2°F21.8°C 69.8°F21.0°C 95% 0.7 mph ENE1.1 kmh ENE 3.8 mph6.1 kmh 29.82 in1009.8 mb 0.02 in0.5 mm 0.06 in1.5 mm 0.15 in3.8 mm
11:30 AM 71.1°F21.7°C 69.9°F21.1°C 96% 3.8 mph NE6.1 kmh NE 5.4 mph8.7 kmh 29.81 in1009.5 mb 0.01 in0.3 mm 0.00 in0.0 mm 0.15 in3.8 mm
11:40 AM 70.9°F21.6°C 69.4°F20.8°C 95% 0.7 mph NE1.1 kmh NE 5.4 mph8.7 kmh 29.81 in1009.5 mb 0.04 in1.0 mm 0.18 in4.6 mm 0.18 in4.6 mm
11:50 AM 71.6°F22.0°C 69.8°F21.0°C 94% 1.6 mph NE2.6 kmh NE 6.0 mph9.7 kmh 29.81 in1009.5 mb 0.04 in1.0 mm 0.00 in0.0 mm 0.18 in4.6 mm
12:00 PM 72.0°F22.2°C 69.9°F21.1°C 93% Calm Calm 5.4 mph8.7 kmh 29.81 in1009.5 mb 0.04 in1.0 mm 0.00 in0.0 mm 0.18 in4.6 mm
12:10 PM 72.0°F22.2°C 69.9°F21.1°C 93% 2.2 mph N3.5 kmh N 6.9 mph11.1 kmh 29.80 in1009.1 mb 0.04 in1.0 mm 0.00 in0.0 mm 0.18 in4.6 mm
12:20 PM 71.4°F21.9°C 70.0°F21.1°C 95% 1.6 mph N2.6 kmh N 4.5 mph7.2 kmh 29.80 in1009.1 mb 0.04 in1.0 mm 0.00 in0.0 mm 0.19 in4.8 mm
12:30 PM 71.6°F22.0°C 70.1°F21.2°C 95% 0.7 mph N1.1 kmh N 3.8 mph6.1 kmh 29.80 in1009.1 mb 0.04 in1.0 mm 0.00 in0.0 mm 0.19 in4.8 mm
12:40 PM 72.5°F22.5°C 71.0°F21.7°C 95% 1.6 mph NE2.6 kmh NE 3.8 mph6.1 kmh 29.79 in1008.8 mb 0.01 in0.3 mm 0.00 in0.0 mm 0.19 in4.8 mm
12:50 PM 72.7°F22.6°C 70.3°F21.3°C 92% 1.6 mph NE2.6 kmh NE 4.5 mph7.2 kmh 29.80 in1009.1 mb 0.01 in0.3 mm 0.00 in0.0 mm 0.19 in4.8 mm
01:00 PM 73.2°F22.9°C 70.8°F21.6°C 92% 2.2 mph NNE3.5 kmh NNE 6.0 mph9.7 kmh 29.79 in1008.8 mb 0.02 in0.5 mm 0.01 in0.3 mm 0.20 in5.1 mm
01:10 PM 72.7°F22.6°C 69.9°F21.1°C 91% 1.6 mph NNE2.6 kmh NNE 7.6 mph12.2 kmh 29.79 in1008.8 mb 0.02 in0.5 mm 0.00 in0.0 mm 0.20 in5.1 mm
01:20 PM 72.9°F22.7°C 70.4°F21.3°C 92% 2.2 mph NNE3.5 kmh NNE 4.5 mph7.2 kmh 29.79 in1008.8 mb 0.01 in0.3 mm 0.00 in0.0 mm 0.20 in5.1 mm
01:30 PM 72.7°F22.6°C 70.3°F21.3°C 92% 2.2 mph N3.5 kmh N 6.9 mph11.1 kmh 29.78 in1008.5 mb 0.01 in0.3 mm 0.00 in0.0 mm 0.20 in5.1 mm
01:40 PM 72.1°F22.3°C 69.7°F20.9°C 92% 3.1 mph N5.0 kmh N 6.9 mph11.1 kmh 29.78 in1008.5 mb 0.01 in0.3 mm 0.00 in0.0 mm 0.20 in5.1 mm
01:50 PM 72.0°F22.2°C 69.5°F20.8°C 92% 2.2 mph N3.5 kmh N 8.3 mph13.4 kmh 29.78 in1008.5 mb 0.01 in0.3 mm 0.00 in0.0 mm 0.20 in5.1 mm
02:00 PM 72.1°F22.3°C 69.7°F20.9°C 92% 1.6 mph N2.6 kmh N 4.5 mph7.2 kmh 29.78 in1008.5 mb 0.01 in0.3 mm 0.00 in0.0 mm 0.21 in5.3 mm
02:10 PM 71.6°F22.0°C 69.2°F20.7°C 92% 1.6 mph N2.6 kmh N 5.4 mph8.7 kmh 29.77 in1008.1 mb 0.02 in0.5 mm 0.06 in1.5 mm 0.22 in5.6 mm
02:20 PM 71.6°F22.0°C 69.5°F20.8°C 93% Calm Calm 6.9 mph11.1 kmh 29.78 in1008.5 mb 0.02 in0.5 mm 0.00 in0.0 mm 0.22 in5.6 mm
02:30 PM 72.1°F22.3°C 70.0°F21.1°C 93% 1.6 mph NE2.6 kmh NE 3.8 mph6.1 kmh 29.77 in1008.1 mb 0.02 in0.5 mm 0.00 in0.0 mm 0.22 in5.6 mm
02:40 PM 72.5°F22.5°C 70.1°F21.2°C 92% Calm Calm 5.4 mph8.7 kmh 29.76 in1007.8 mb 0.02 in0.5 mm 0.00 in0.0 mm 0.22 in5.6 mm
02:50 PM 72.7°F22.6°C 70.3°F21.3°C 92% Calm Calm 5.4 mph8.7 kmh 29.76 in1007.8 mb 0.02 in0.5 mm 0.00 in0.0 mm 0.22 in5.6 mm
03:00 PM 72.7°F22.6°C 69.9°F21.1°C 91% 0.7 mph ENE1.1 kmh ENE 6.9 mph11.1 kmh 29.76 in1007.8 mb 0.01 in0.3 mm 0.00 in0.0 mm 0.22 in5.6 mm
03:10 PM 72.3°F22.4°C 69.6°F20.9°C 91% 1.6 mph NE2.6 kmh NE 6.9 mph11.1 kmh 29.75 in1007.5 mb 0.00 in0.0 mm 0.00 in0.0 mm 0.22 in5.6 mm
03:20 PM 72.1°F22.3°C 69.4°F20.8°C 91% Calm Calm 5.4 mph8.7 kmh 29.75 in1007.5 mb 0.01 in0.3 mm 0.06 in1.5 mm 0.24 in6.1 mm
03:30 PM 72.0°F22.2°C 69.2°F20.7°C 91% 2.2 mph NE3.5 kmh NE 7.6 mph12.2 kmh 29.75 in1007.5 mb 0.01 in0.3 mm 0.00 in0.0 mm 0.24 in6.1 mm
03:40 PM 71.6°F22.0°C 68.9°F20.5°C 91% 1.6 mph NE2.6 kmh NE 5.4 mph8.7 kmh 29.74 in1007.1 mb 0.01 in0.3 mm 0.00 in0.0 mm 0.24 in6.1 mm
03:50 PM 71.4°F21.9°C 69.3°F20.7°C 93% 2.2 mph NE3.5 kmh NE 5.4 mph8.7 kmh 29.74 in1007.1 mb 0.01 in0.3 mm 0.00 in0.0 mm 0.24 in6.1 mm
04:00 PM 71.4°F21.9°C 69.3°F20.7°C 93% 2.2 mph NE3.5 kmh NE 3.8 mph6.1 kmh 29.74 in1007.1 mb 0.01 in0.3 mm 0.00 in0.0 mm 0.24 in6.1 mm
04:10 PM 71.1°F21.7°C 69.0°F20.6°C 93% 2.2 mph NE3.5 kmh NE 4.5 mph7.2 kmh 29.74 in1007.1 mb 0.02 in0.5 mm 0.06 in1.5 mm 0.25 in6.4 mm
04:20 PM 71.1°F21.7°C 69.3°F20.7°C 94% Calm Calm 3.8 mph6.1 kmh 29.74 in1007.1 mb 0.01 in0.3 mm 0.00 in0.0 mm 0.25 in6.4 mm
04:30 PM 70.9°F21.6°C 69.4°F20.8°C 95% Calm Calm 2.2 mph3.5 kmh 29.74 in1007.1 mb 0.01 in0.3 mm 0.00 in0.0 mm 0.25 in6.4 mm
04:40 PM 70.5°F21.4°C 69.1°F20.6°C 95% Calm Calm 3.1 mph5.0 kmh 29.73 in1006.8 mb 0.02 in0.5 mm 0.06 in1.5 mm 0.26 in6.6 mm
04:50 PM 70.0°F21.1°C 68.5°F20.3°C 95% 0.7 mph ENE1.1 kmh ENE 5.4 mph8.7 kmh 29.73 in1006.8 mb 0.04 in1.0 mm 0.12 in3.0 mm 0.27 in6.9 mm
05:00 PM 69.8°F21.0°C 68.3°F20.2°C 95% Calm Calm 3.1 mph5.0 kmh 29.73 in1006.8 mb 0.04 in1.0 mm 0.00 in0.0 mm 0.27 in6.9 mm
05:10 PM 69.4°F20.8°C 68.3°F20.2°C 96% 0.7 mph NE1.1 kmh NE 3.8 mph6.1 kmh 29.73 in1006.8 mb 0.02 in0.5 mm 0.00 in0.0 mm 0.27 in6.9 mm
05:20 PM 69.1°F20.6°C 68.2°F20.1°C 97% Calm Calm 3.8 mph6.1 kmh 29.73 in1006.8 mb 0.04 in1.0 mm 0.12 in3.0 mm 0.28 in7.1 mm
05:30 PM 69.1°F20.6°C 68.2°F20.1°C 97% 0.7 mph NE1.1 kmh NE 2.2 mph3.5 kmh 29.73 in1006.8 mb 0.05 in1.3 mm 0.06 in1.5 mm 0.30 in7.6 mm
05:40 PM 68.9°F20.5°C 68.3°F20.2°C 98% Calm Calm 2.2 mph3.5 kmh 29.73 in1006.8 mb 0.04 in1.0 mm 0.00 in0.0 mm 0.30 in7.6 mm
05:50 PM 68.5°F20.3°C 68.0°F20.0°C 98% Calm Calm 4.5 mph7.2 kmh 29.73 in1006.8 mb 0.02 in0.5 mm 0.00 in0.0 mm 0.30 in7.6 mm
06:00 PM 68.2°F20.1°C 67.6°F19.8°C 98% 3.8 mph NE6.1 kmh NE 5.4 mph8.7 kmh 29.72 in1006.4 mb 0.02 in0.5 mm 0.00 in0.0 mm 0.30 in7.6 mm
06:10 PM 67.6°F19.8°C 67.1°F19.5°C 98% 0.7 mph NE1.1 kmh NE 6.9 mph11.1 kmh 29.72 in1006.4 mb 0.04 in1.0 mm 0.12 in3.0 mm 0.31 in7.9 mm
06:20 PM 67.1°F19.5°C 66.3°F19.1°C 97% 1.6 mph NE2.6 kmh NE 5.4 mph8.7 kmh 29.71 in1006.1 mb 0.04 in1.0 mm 0.00 in0.0 mm 0.32 in8.1 mm
06:30 PM 66.9°F19.4°C 65.8°F18.8°C 96% 4.5 mph NE7.2 kmh NE 6.9 mph11.1 kmh 29.72 in1006.4 mb 0.02 in0.5 mm 0.00 in0.0 mm 0.32 in8.1 mm
06:40 PM 66.7°F19.3°C 65.6°F18.7°C 96% 0.7 mph NE1.1 kmh NE 6.0 mph9.7 kmh 29.71 in1006.1 mb 0.02 in0.5 mm 0.00 in0.0 mm 0.32 in8.1 mm
06:50 PM 66.6°F19.2°C 65.7°F18.7°C 97% Calm Calm 2.2 mph3.5 kmh 29.70 in1005.8 mb 0.02 in0.5 mm 0.00 in0.0 mm 0.32 in8.1 mm
07:00 PM 66.4°F19.1°C 65.5°F18.6°C 97% 2.2 mph ENE3.5 kmh ENE 3.8 mph6.1 kmh 29.70 in1005.8 mb 0.02 in0.5 mm 0.00 in0.0 mm 0.32 in8.1 mm
07:10 PM 66.4°F19.1°C 65.2°F18.4°C 96% Calm Calm 3.8 mph6.1 kmh 29.70 in1005.8 mb 0.01 in0.3 mm 0.00 in0.0 mm 0.32 in8.1 mm
07:20 PM 66.4°F19.1°C 64.9°F18.3°C 95% 1.6 mph E2.6 kmh E 3.8 mph6.1 kmh 29.70 in1005.8 mb 0.00 in0.0 mm 0.00 in0.0 mm 0.32 in8.1 mm
07:30 PM 66.4°F19.1°C 64.6°F18.1°C 94% 3.8 mph E6.1 kmh E 6.9 mph11.1 kmh 29.70 in1005.8 mb 0.00 in0.0 mm 0.00 in0.0 mm 0.32 in8.1 mm
07:40 PM 66.4°F19.1°C 64.6°F18.1°C 94% 4.5 mph E7.2 kmh E 8.3 mph13.4 kmh 29.70 in1005.8 mb 0.00 in0.0 mm 0.00 in0.0 mm 0.32 in8.1 mm
07:50 PM 66.9°F19.4°C 64.2°F17.9°C 91% 6.0 mph ENE9.7 kmh ENE 9.2 mph14.8 kmh 29.69 in1005.4 mb 0.00 in0.0 mm 0.00 in0.0 mm 0.32 in8.1 mm
08:00 PM 66.7°F19.3°C 63.7°F17.6°C 90% 2.2 mph E3.5 kmh E 9.2 mph14.8 kmh 29.70 in1005.8 mb 0.00 in0.0 mm 0.00 in0.0 mm 0.32 in8.1 mm
08:10 PM 66.7°F19.3°C 63.7°F17.6°C 90% 4.5 mph ENE7.2 kmh ENE 14.5 mph23.3 kmh 29.69 in1005.4 mb 0.00 in0.0 mm 0.00 in0.0 mm 0.32 in8.1 mm
08:20 PM 66.9°F19.4°C 63.9°F17.7°C 90% 3.8 mph ENE6.1 kmh ENE 9.8 mph15.8 kmh 29.69 in1005.4 mb 0.00 in0.0 mm 0.00 in0.0 mm 0.32 in8.1 mm
08:30 PM 67.3°F19.6°C 64.0°F17.8°C 89% 6.0 mph E9.7 kmh E 12.1 mph19.5 kmh 29.68 in1005.1 mb 0.00 in0.0 mm 0.00 in0.0 mm 0.32 in8.1 mm
08:40 PM 67.6°F19.8°C 63.7°F17.6°C 87% 5.4 mph ENE8.7 kmh ENE 9.8 mph15.8 kmh 29.68 in1005.1 mb 0.00 in0.0 mm 0.00 in0.0 mm 0.32 in8.1 mm
08:50 PM 67.8°F19.9°C 63.5°F17.5°C 86% 3.8 mph E6.1 kmh E 14.5 mph23.3 kmh 29.68 in1005.1 mb 0.00 in0.0 mm 0.00 in0.0 mm 0.32 in8.1 mm
09:00 PM 67.5°F19.7°C 63.5°F17.5°C 87% 5.4 mph ENE8.7 kmh ENE 12.1 mph19.5 kmh 29.68 in1005.1 mb 0.00 in0.0 mm 0.00 in0.0 mm 0.32 in8.1 mm
09:10 PM 67.1°F19.5°C 63.5°F17.5°C 88% 4.5 mph ENE7.2 kmh ENE 12.1 mph19.5 kmh 29.67 in1004.7 mb 0.00 in0.0 mm 0.00 in0.0 mm 0.32 in8.1 mm
09:20 PM 66.7°F19.3°C 63.7°F17.6°C 90% 4.5 mph E7.2 kmh E 12.1 mph19.5 kmh 29.67 in1004.7 mb 0.01 in0.3 mm 0.06 in1.5 mm 0.33 in8.4 mm
09:30 PM 66.6°F19.2°C 63.6°F17.6°C 90% 6.0 mph ENE9.7 kmh ENE 13.0 mph20.9 kmh 29.66 in1004.4 mb 0.01 in0.3 mm 0.00 in0.0 mm 0.33 in8.4 mm
09:40 PM 66.7°F19.3°C 63.7°F17.6°C 90% 6.9 mph ENE11.1 kmh ENE 13.0 mph20.9 kmh 29.65 in1004.1 mb 0.01 in0.3 mm 0.00 in0.0 mm 0.33 in8.4 mm
09:50 PM 66.9°F19.4°C 63.9°F17.7°C 90% 6.9 mph NE11.1 kmh NE 14.5 mph23.3 kmh 29.65 in1004.1 mb 0.02 in0.5 mm 0.06 in1.5 mm 0.34 in8.6 mm
10:00 PM 67.6°F19.8°C 64.0°F17.8°C 88% 5.4 mph ENE8.7 kmh ENE 19.7 mph31.7 kmh 29.64 in1003.7 mb 0.02 in0.5 mm 0.00 in0.0 mm 0.34 in8.6 mm
10:10 PM 67.8°F19.9°C 63.8°F17.7°C 87% 9.2 mph ENE14.8 kmh ENE 17.4 mph28.0 kmh 29.63 in1003.4 mb 0.02 in0.5 mm 0.00 in0.0 mm 0.34 in8.6 mm
10:20 PM 68.2°F20.1°C 63.5°F17.5°C 85% 9.2 mph NE14.8 kmh NE 19.7 mph31.7 kmh 29.63 in1003.4 mb 0.01 in0.3 mm 0.00 in0.0 mm 0.34 in8.6 mm
10:30 PM 68.5°F20.3°C 63.5°F17.5°C 84% 9.8 mph ENE15.8 kmh ENE 18.3 mph29.5 kmh 29.61 in1002.7 mb 0.01 in0.3 mm 0.00 in0.0 mm 0.34 in8.6 mm
10:40 PM 68.5°F20.3°C 63.5°F17.5°C 84% 6.0 mph NE9.7 kmh NE 19.7 mph31.7 kmh 29.61 in1002.7 mb 0.01 in0.3 mm 0.00 in0.0 mm 0.34 in8.6 mm
10:50 PM 68.5°F20.3°C 63.2°F17.3°C 83% 9.8 mph NE15.8 kmh NE 15.9 mph25.6 kmh 29.61 in1002.7 mb 0.00 in0.0 mm 0.00 in0.0 mm 0.34 in8.6 mm
11:00 PM 68.9°F20.5°C 63.6°F17.6°C 83% 17.4 mph ENE28.0 kmh ENE 23.5 mph37.8 kmh 29.60 in1002.4 mb 0.00 in0.0 mm 0.00 in0.0 mm 0.20 in5.1 mm
11:10 PM 69.1°F20.6°C 63.7°F17.6°C 83% 12.1 mph NE19.5 kmh NE 22.1 mph35.6 kmh 29.59 in1002.0 mb 0.00 in0.0 mm 0.00 in0.0 mm 0.20 in5.1 mm
11:20 PM 69.1°F20.6°C 63.7°F17.6°C 83% 9.8 mph E15.8 kmh E 22.1 mph35.6 kmh 29.59 in1002.0 mb 0.00 in0.0 mm 0.00 in0.0 mm 0.20 in5.1 mm
11:30 PM 69.1°F20.6°C 63.7°F17.6°C 83% 7.6 mph NE12.2 kmh NE 23.5 mph37.8 kmh 29.59 in1002.0 mb 0.00 in0.0 mm 0.00 in0.0 mm 0.20 in5.1 mm
11:40 PM 69.1°F20.6°C 63.7°F17.6°C 83% 11.4 mph NE18.3 kmh NE 27.3 mph43.9 kmh 29.58 in1001.7 mb 0.00 in0.0 mm 0.00 in0.0 mm 0.20 in5.1 mm
11:50 PM 68.9°F20.5°C 63.6°F17.6°C 83% 6.9 mph NE11.1 kmh NE 20.6 mph33.2 kmh 29.57 in1001.4 mb 0.00 in0.0 mm 0.00 in0.0 mm 0.20 in5.1 mm